Time;durP1;ratioP1;P1;durP2;ratioP2;P2;SDS_P1;SDS_P2;PMS_P1;PMS_P2;Temp;Humidity;BMP_temperature;BMP_pressure;BME280_temperature;BME280_humidity;BME280_pressure;Samples;Min_cycle;Max_cycle;Signal;HPM_P1;HPM_P2
2023/05/24 00:00:03;;;;;;;11.75;5.88;;;;;;;;;;5094127;28;20068;-90
2023/05/24 00:02:30;;;;;;;10.55;6.45;;;;;;;;;;5093990;28;20127;-91
2023/05/24 00:04:59;;;;;;;22.67;6.75;;;;;;;;;;5094008;28;20447;-92
2023/05/24 00:07:27;;;;;;;11.02;5.90;;;;;;;;;;5094256;28;20061;-90
2023/05/24 00:09:54;;;;;;;10.95;6.38;;;;;;;;;;5094312;28;20105;-91
2023/05/24 00:12:22;;;;;;;12.45;5.45;;;;;;;;;;5094217;28;20048;-90
2023/05/24 00:14:50;;;;;;;12.65;5.78;;;;;;;;;;5094247;28;20060;-91
2023/05/24 00:17:17;;;;;;;13.45;6.00;;;;;;;;;;5093916;28;20052;-92
2023/05/24 00:19:44;;;;;;;13.40;5.78;;;;;;;;;;5093959;28;20083;-90
2023/05/24 00:22:12;;;;;;;17.63;6.40;;;;;;;;;;5092940;28;20048;-89
2023/05/24 00:24:40;;;;;;;11.63;5.35;;;;;;;;;;5093993;28;20052;-91
2023/05/24 00:27:07;;;;;;;16.30;5.60;;;;;;;;;;5093882;28;20408;-90
2023/05/24 00:29:34;;;;;;;15.13;5.68;;;;;;;;;;5093832;28;20101;-92
2023/05/24 00:32:02;;;;;;;9.90;4.78;;;;;;;;;;5093903;28;20048;-92
2023/05/24 00:34:29;;;;;;;13.13;5.05;;;;;;;;;;5093702;28;20062;-91
2023/05/24 00:36:57;;;;;;;13.55;5.18;;;;;;;;;;5093461;28;20043;-91
2023/05/24 00:39:24;;;;;;;16.17;5.18;;;;;;;;;;5094003;28;20093;-91
2023/05/24 00:41:51;;;;;;;12.13;4.57;;;;;;;;;;5093793;28;20052;-91
2023/05/24 00:44:19;;;;;;;13.20;5.07;;;;;;;;;;5093487;28;20492;-90
2023/05/24 00:46:47;;;;;;;11.02;4.32;;;;;;;;;;5093279;28;20076;-90
2023/05/24 00:49:14;;;;;;;20.08;6.35;;;;;;;;;;5093556;28;20130;-90
2023/05/24 00:51:41;;;;;;;15.40;5.03;;;;;;;;;;5093393;28;20055;-90
2023/05/24 00:54:08;;;;;;;15.93;4.75;;;;;;;;;;5093406;28;20056;-89
2023/05/24 00:56:35;;;;;;;14.35;4.93;;;;;;;;;;5094805;28;20412;-92
2023/05/24 00:59:03;;;;;;;17.30;4.70;;;;;;;;;;5100538;28;20048;-90
2023/05/24 01:01:34;;;;;;;26.80;5.82;;;;;;;;;;5093298;28;20051;-91
2023/05/24 01:04:01;;;;;;;15.55;4.68;;;;;;;;;;5093253;28;20138;-90
2023/05/24 01:06:29;;;;;;;13.10;4.07;;;;;;;;;;5093112;28;20060;-90
2023/05/24 01:09:02;;;;;;;14.43;4.50;;;;;;;;;;5098713;28;20044;-91
2023/05/24 01:11:32;;;;;;;6.75;3.53;;;;;;;;;;5112412;28;20081;-91
2023/05/24 01:14:02;;;;;;;12.57;3.83;;;;;;;;;;5095317;28;20082;-90
2023/05/24 01:16:34;;;;;;;14.57;4.07;;;;;;;;;;5092950;28;20086;-91
2023/05/24 01:19:05;;;;;;;14.85;4.90;;;;;;;;;;5092648;28;20580;-91
2023/05/24 01:21:33;;;;;;;13.63;4.05;;;;;;;;;;5092784;28;20047;-89
2023/05/24 01:24:04;;;;;;;8.32;3.22;;;;;;;;;;5092539;28;20044;-91
2023/05/24 01:26:37;;;;;;;11.65;3.60;;;;;;;;;;5092641;28;20097;-90
2023/05/24 01:29:05;;;;;;;10.95;3.50;;;;;;;;;;5092693;28;20048;-90
2023/05/24 01:31:33;;;;;;;18.85;3.72;;;;;;;;;;5092562;28;20141;-88
2023/05/24 01:34:00;;;;;;;17.10;3.35;;;;;;;;;;5092530;28;20051;-90
2023/05/24 01:36:28;;;;;;;12.13;3.28;;;;;;;;;;5093712;28;20101;-92
2023/05/24 01:38:55;;;;;;;14.07;3.67;;;;;;;;;;5092843;28;20044;-90
2023/05/24 01:41:35;;;;;;;14.52;3.65;;;;;;;;;;5093579;28;20040;-90
2023/05/24 01:44:03;;;;;;;15.02;3.53;;;;;;;;;;5092517;28;20117;-90
2023/05/24 01:46:37;;;;;;;11.60;2.58;;;;;;;;;;5093503;28;20051;-89
2023/05/24 01:49:05;;;;;;;13.93;3.40;;;;;;;;;;5092462;28;20052;-91
2023/05/24 01:51:36;;;;;;;14.88;3.53;;;;;;;;;;5093432;28;20075;-90
2023/05/24 01:54:04;;;;;;;15.25;3.03;;;;;;;;;;5092478;28;20087;-89
2023/05/24 01:56:32;;;;;;;10.60;2.85;;;;;;;;;;5092122;28;20044;-89
2023/05/24 01:59:00;;;;;;;18.25;3.17;;;;;;;;;;5092362;28;20107;-89
2023/05/24 02:01:28;;;;;;;11.82;2.67;;;;;;;;;;5092342;28;20048;-89
2023/05/24 02:03:55;;;;;;;10.77;2.58;;;;;;;;;;5093718;28;20070;-90
2023/05/24 02:06:22;;;;;;;10.90;2.70;;;;;;;;;;5092130;28;20048;-88
2023/05/24 02:08:52;;;;;;;13.13;3.25;;;;;;;;;;5091886;28;20105;-89
2023/05/24 02:11:19;;;;;;;14.10;3.03;;;;;;;;;;5093137;28;20048;-89
2023/05/24 02:13:47;;;;;;;9.65;2.70;;;;;;;;;;5091979;28;20072;-90
2023/05/24 02:16:14;;;;;;;9.25;2.72;;;;;;;;;;5091953;28;20084;-89
2023/05/24 02:18:45;;;;;;;12.93;3.03;;;;;;;;;;5092526;28;20097;-91
2023/05/24 02:21:12;;;;;;;11.45;2.95;;;;;;;;;;5092250;28;20056;-88
2023/05/24 02:23:40;;;;;;;15.55;3.53;;;;;;;;;;5092879;28;20052;-88
2023/05/24 02:26:10;;;;;;;15.15;3.40;;;;;;;;;;5106174;28;20055;-88
2023/05/24 02:28:37;;;;;;;15.43;3.03;;;;;;;;;;5095004;28;20459;-88
2023/05/24 02:31:05;;;;;;;12.98;2.92;;;;;;;;;;5092025;28;20055;-88
2023/05/24 02:33:32;;;;;;;12.27;2.83;;;;;;;;;;5092086;28;20052;-88
2023/05/24 02:36:00;;;;;;;14.57;3.22;;;;;;;;;;5091990;28;20055;-88
2023/05/24 02:38:27;;;;;;;9.95;2.88;;;;;;;;;;5092034;28;20048;-90
2023/05/24 02:40:54;;;;;;;13.80;2.88;;;;;;;;;;5091526;28;20074;-88
2023/05/24 02:43:21;;;;;;;9.93;2.50;;;;;;;;;;5091829;28;20565;-87
2023/05/24 02:45:48;;;;;;;15.07;3.05;;;;;;;;;;5094885;28;20044;-87
2023/05/24 02:48:16;;;;;;;10.10;2.67;;;;;;;;;;5095487;28;20416;-88
2023/05/24 02:50:43;;;;;;;16.20;3.60;;;;;;;;;;5095333;28;20051;-88
2023/05/24 02:53:11;;;;;;;18.70;2.80;;;;;;;;;;5095198;28;20056;-89
2023/05/24 02:55:38;;;;;;;12.55;2.78;;;;;;;;;;5095170;28;20044;-90
2023/05/24 02:58:07;;;;;;;16.33;2.58;;;;;;;;;;5095165;28;20044;-88
2023/05/24 03:00:34;;;;;;;11.80;2.30;;;;;;;;;;5095640;28;20048;-90
2023/05/24 03:03:02;;;;;;;13.90;2.58;;;;;;;;;;5095197;28;20052;-89
2023/05/24 03:05:29;;;;;;;12.88;2.50;;;;;;;;;;5095317;28;20047;-90
2023/05/24 03:07:57;;;;;;;14.10;2.97;;;;;;;;;;5095230;28;20048;-90
2023/05/24 03:10:24;;;;;;;7.75;2.13;;;;;;;;;;5096957;28;20055;-89
2023/05/24 03:12:51;;;;;;;19.63;2.78;;;;;;;;;;5095684;28;20411;-90
2023/05/24 03:15:19;;;;;;;8.63;2.58;;;;;;;;;;5095180;28;20074;-90
2023/05/24 03:17:46;;;;;;;15.77;3.05;;;;;;;;;;5095155;28;20052;-89
2023/05/24 03:20:14;;;;;;;12.32;2.50;;;;;;;;;;5094845;28;20066;-90
2023/05/24 03:22:44;;;;;;;13.07;2.40;;;;;;;;;;5095411;28;20059;-90
2023/05/24 03:25:12;;;;;;;10.07;2.15;;;;;;;;;;5095505;28;20078;-90
2023/05/24 03:27:39;;;;;;;18.38;2.92;;;;;;;;;;5095609;28;20058;-89
2023/05/24 03:30:08;;;;;;;13.13;3.00;;;;;;;;;;5095358;28;20052;-91
2023/05/24 03:32:35;;;;;;;16.25;2.83;;;;;;;;;;5094957;28;20064;-91
2023/05/24 03:35:02;;;;;;;11.88;2.40;;;;;;;;;;5094563;28;20048;-89
2023/05/24 03:37:30;;;;;;;12.40;2.20;;;;;;;;;;5095088;28;20109;-89
2023/05/24 03:39:57;;;;;;;10.90;2.15;;;;;;;;;;5097339;28;20492;-88
2023/05/24 03:42:24;;;;;;;17.98;2.67;;;;;;;;;;5103548;28;20045;-91
2023/05/24 03:44:51;;;;;;;14.73;2.50;;;;;;;;;;5095898;28;20048;-89
2023/05/24 03:47:19;;;;;;;12.65;2.58;;;;;;;;;;5094324;28;20052;-89
2023/05/24 03:49:46;;;;;;;21.15;3.53;;;;;;;;;;5094038;28;20128;-88
2023/05/24 03:52:15;;;;;;;13.98;2.65;;;;;;;;;;5094420;28;20469;-89
2023/05/24 03:54:42;;;;;;;15.20;2.50;;;;;;;;;;5094143;28;20059;-89
2023/05/24 03:57:09;;;;;;;12.52;2.50;;;;;;;;;;5093856;28;20048;-89
2023/05/24 03:59:36;;;;;;;11.40;2.15;;;;;;;;;;5094082;28;20068;-90
2023/05/24 04:02:07;;;;;;;11.32;2.50;;;;;;;;;;5093880;28;20097;-89
2023/05/24 04:04:35;;;;;;;11.90;2.70;;;;;;;;;;5094015;28;20075;-89
2023/05/24 04:07:03;;;;;;;16.05;2.97;;;;;;;;;;5093964;28;20052;-89
2023/05/24 04:09:30;;;;;;;12.50;2.80;;;;;;;;;;5093740;28;20075;-91
2023/05/24 04:11:57;;;;;;;15.57;2.92;;;;;;;;;;5093802;28;20040;-91
2023/05/24 04:14:24;;;;;;;15.05;3.67;;;;;;;;;;5092918;28;20461;-89
2023/05/24 04:16:52;;;;;;;10.82;2.40;;;;;;;;;;5093687;28;20043;-89
2023/05/24 04:19:20;;;;;;;11.18;2.92;;;;;;;;;;5093712;28;20097;-89
2023/05/24 04:21:47;;;;;;;14.60;2.58;;;;;;;;;;5093552;28;20515;-88
2023/05/24 04:24:15;;;;;;;10.52;2.28;;;;;;;;;;5093360;28;20116;-88
2023/05/24 04:26:43;;;;;;;17.83;2.90;;;;;;;;;;5093628;28;20480;-90
2023/05/24 04:29:10;;;;;;;15.20;2.75;;;;;;;;;;5093337;28;20044;-90
2023/05/24 04:31:38;;;;;;;10.52;2.65;;;;;;;;;;5093709;28;20052;-89
2023/05/24 04:34:06;;;;;;;12.10;2.78;;;;;;;;;;5093695;28;20082;-89
2023/05/24 04:36:34;;;;;;;14.50;3.55;;;;;;;;;;5093704;28;20044;-92
2023/05/24 04:39:03;;;;;;;16.90;3.13;;;;;;;;;;5093328;28;20056;-90
2023/05/24 04:41:31;;;;;;;18.27;3.10;;;;;;;;;;5093420;28;20074;-91
2023/05/24 04:43:58;;;;;;;17.17;3.70;;;;;;;;;;5093459;28;20127;-90
2023/05/24 04:46:26;;;;;;;15.82;2.85;;;;;;;;;;5093609;28;20052;-91
2023/05/24 04:48:53;;;;;;;11.30;2.30;;;;;;;;;;5093406;28;20097;-91
2023/05/24 04:51:22;;;;;;;13.85;2.40;;;;;;;;;;5093265;28;20513;-91
2023/05/24 04:53:49;;;;;;;30.65;4.07;;;;;;;;;;5093752;28;20048;-89
2023/05/24 04:56:16;;;;;;;17.92;3.10;;;;;;;;;;5100136;28;20048;-88
2023/05/24 04:58:44;;;;;;;14.43;2.55;;;;;;;;;;5101219;28;20048;-89
2023/05/24 05:01:12;;;;;;;16.85;3.53;;;;;;;;;;5093019;28;20052;-88
2023/05/24 05:03:39;;;;;;;30.42;4.55;;;;;;;;;;5092969;28;20495;-89
2023/05/24 05:06:07;;;;;;;22.85;3.55;;;;;;;;;;5092966;28;20140;-90
2023/05/24 05:08:34;;;;;;;18.60;3.50;;;;;;;;;;5092445;28;20480;-89
2023/05/24 05:11:02;;;;;;;14.75;2.72;;;;;;;;;;5093265;28;20063;-91
2023/05/24 05:13:29;;;;;;;10.98;2.97;;;;;;;;;;5093108;28;20052;-89
2023/05/24 05:15:57;;;;;;;21.98;3.17;;;;;;;;;;5093244;28;20047;-88
2023/05/24 05:18:24;;;;;;;12.52;3.00;;;;;;;;;;5092895;28;20070;-88
2023/05/24 05:20:51;;;;;;;14.00;2.85;;;;;;;;;;5093586;28;20059;-88
2023/05/24 05:23:19;;;;;;;26.33;7.78;;;;;;;;;;5091638;28;20062;-88
2023/05/24 05:25:46;;;;;;;28.63;4.40;;;;;;;;;;5093019;28;20048;-91
2023/05/24 05:28:13;;;;;;;15.70;3.83;;;;;;;;;;5092978;28;20078;-89
2023/05/24 05:30:40;;;;;;;11.77;3.53;;;;;;;;;;5092699;28;20060;-89
2023/05/24 05:33:08;;;;;;;13.40;3.53;;;;;;;;;;5092601;28;20105;-90
2023/05/24 05:35:35;;;;;;;10.95;2.92;;;;;;;;;;5092776;28;20052;-90
2023/05/24 05:38:03;;;;;;;16.55;3.55;;;;;;;;;;5092790;28;20473;-90
2023/05/24 05:40:31;;;;;;;13.65;3.10;;;;;;;;;;5092801;28;20059;-90
2023/05/24 05:42:58;;;;;;;15.07;3.55;;;;;;;;;;5092633;28;20066;-89
2023/05/24 05:45:26;;;;;;;14.20;4.72;;;;;;;;;;5092624;28;20451;-89
2023/05/24 05:47:53;;;;;;;14.50;5.25;;;;;;;;;;5092540;28;20103;-88
2023/05/24 05:50:20;;;;;;;17.63;4.72;;;;;;;;;;5092363;28;20484;-89
2023/05/24 05:52:47;;;;;;;14.65;4.07;;;;;;;;;;5092111;28;20071;-88
2023/05/24 05:55:15;;;;;;;14.82;3.63;;;;;;;;;;5093222;28;20079;-88
2023/05/24 05:57:42;;;;;;;13.13;3.50;;;;;;;;;;5092738;28;20075;-89
2023/05/24 06:00:10;;;;;;;14.32;3.90;;;;;;;;;;5092212;28;20051;-88
2023/05/24 06:02:37;;;;;;;15.32;3.95;;;;;;;;;;5093079;28;20051;-88
2023/05/24 06:05:05;;;;;;;17.77;4.20;;;;;;;;;;5093357;28;20063;-89
2023/05/24 06:07:32;;;;;;;20.23;3.88;;;;;;;;;;5092250;28;20206;-89
2023/05/24 06:10:00;;;;;;;18.17;4.20;;;;;;;;;;5092350;28;20048;-88
2023/05/24 06:12:27;;;;;;;13.07;3.47;;;;;;;;;;5101082;28;20065;-88
2023/05/24 06:14:56;;;;;;;20.80;4.50;;;;;;;;;;5096016;28;20059;-87
2023/05/24 06:17:24;;;;;;;14.02;3.22;;;;;;;;;;5092171;28;20105;-89
2023/05/24 06:19:54;;;;;;;10.40;3.20;;;;;;;;;;5095553;28;20055;-90
2023/05/24 06:22:22;;;;;;;20.17;3.75;;;;;;;;;;5096369;28;20048;-90
2023/05/24 06:24:49;;;;;;;14.82;3.33;;;;;;;;;;5095902;28;20087;-90
2023/05/24 06:27:16;;;;;;;14.27;2.47;;;;;;;;;;5095945;28;20454;-89
2023/05/24 06:29:43;;;;;;;14.40;3.33;;;;;;;;;;5095854;28;20075;-89
2023/05/24 06:32:11;;;;;;;15.82;3.45;;;;;;;;;;5095852;28;20120;-90
2023/05/24 06:34:38;;;;;;;13.48;4.20;;;;;;;;;;5095691;28;20496;-89
2023/05/24 06:37:09;;;;;;;10.93;3.22;;;;;;;;;;5095834;28;20055;-89
2023/05/24 06:39:36;;;;;;;18.33;3.42;;;;;;;;;;5095624;28;20503;-91
2023/05/24 06:42:03;;;;;;;19.80;3.50;;;;;;;;;;5097285;28;20048;-90
2023/05/24 06:44:33;;;;;;;11.80;2.83;;;;;;;;;;5094989;28;20044;-90
2023/05/24 06:47:01;;;;;;;20.73;3.38;;;;;;;;;;5095625;28;20040;-89
2023/05/24 06:49:28;;;;;;;15.85;3.42;;;;;;;;;;5095500;28;20051;-88
2023/05/24 06:51:55;;;;;;;12.88;3.42;;;;;;;;;;5096543;28;20055;-89
2023/05/24 06:54:24;;;;;;;15.75;3.42;;;;;;;;;;5095377;28;20078;-87
2023/05/24 06:56:51;;;;;;;10.45;3.15;;;;;;;;;;5095200;28;20097;-88
2023/05/24 06:59:18;;;;;;;14.82;3.28;;;;;;;;;;5095594;28;20052;-89
2023/05/24 07:01:48;;;;;;;14.98;3.05;;;;;;;;;;5095375;28;20059;-90
2023/05/24 07:04:15;;;;;;;11.95;2.90;;;;;;;;;;5095753;28;20055;-90
2023/05/24 07:06:42;;;;;;;9.57;2.88;;;;;;;;;;5095336;28;20054;-91
2023/05/24 07:09:09;;;;;;;14.18;3.10;;;;;;;;;;5096138;28;20436;-89
2023/05/24 07:11:37;;;;;;;14.75;3.67;;;;;;;;;;5095205;28;20052;-89
2023/05/24 07:14:04;;;;;;;7.70;2.55;;;;;;;;;;5096034;28;20058;-87
2023/05/24 07:16:31;;;;;;;13.13;3.20;;;;;;;;;;5095115;28;20117;-88
2023/05/24 07:18:59;;;;;;;10.70;3.03;;;;;;;;;;5094793;28;20430;-88
2023/05/24 07:21:30;;;;;;;12.77;3.05;;;;;;;;;;5095947;28;20093;-89
2023/05/24 07:23:57;;;;;;;10.93;3.38;;;;;;;;;;5094981;28;20083;-88
2023/05/24 07:26:25;;;;;;;9.63;3.30;;;;;;;;;;5102005;28;20063;-89
2023/05/24 07:28:52;;;;;;;8.75;2.88;;;;;;;;;;5108881;28;20069;-90
2023/05/24 07:31:20;;;;;;;11.00;2.55;;;;;;;;;;5101394;28;20056;-89
2023/05/24 07:33:47;;;;;;;10.98;3.42;;;;;;;;;;5096359;28;20106;-88
2023/05/24 07:36:15;;;;;;;6.65;3.05;;;;;;;;;;5094929;28;20117;-89
2023/05/24 07:38:42;;;;;;;8.73;2.58;;;;;;;;;;5094491;28;20055;-89
2023/05/24 07:41:09;;;;;;;16.00;3.30;;;;;;;;;;5094788;28;20056;-89
2023/05/24 07:43:37;;;;;;;13.07;2.97;;;;;;;;;;5094770;28;20048;-90
2023/05/24 07:46:04;;;;;;;12.40;2.78;;;;;;;;;;5094497;28;20048;-90
2023/05/24 07:48:31;;;;;;;10.63;2.45;;;;;;;;;;5094568;28;20488;-91
2023/05/24 07:50:58;;;;;;;7.80;2.30;;;;;;;;;;5094413;28;20074;-91
2023/05/24 07:53:26;;;;;;;9.45;2.45;;;;;;;;;;5094684;28;20052;-91
2023/05/24 07:55:53;;;;;;;9.77;2.67;;;;;;;;;;5094432;28;20048;-88
2023/05/24 07:58:21;;;;;;;8.27;1.90;;;;;;;;;;5094393;28;20051;-90
2023/05/24 08:00:48;;;;;;;10.63;2.40;;;;;;;;;;5094234;28;20116;-89
2023/05/24 08:03:16;;;;;;;12.60;2.75;;;;;;;;;;5094300;28;20048;-88
2023/05/24 08:05:44;;;;;;;12.52;3.10;;;;;;;;;;5094039;28;20048;-89
2023/05/24 08:08:11;;;;;;;7.55;2.67;;;;;;;;;;5094210;28;20046;-90
2023/05/24 08:10:38;;;;;;;9.43;2.78;;;;;;;;;;5094012;28;20127;-90
2023/05/24 08:13:06;;;;;;;13.00;2.78;;;;;;;;;;5094196;28;20068;-89
2023/05/24 08:15:33;;;;;;;12.15;2.65;;;;;;;;;;5094025;28;20063;-88
2023/05/24 08:18:00;;;;;;;8.00;2.30;;;;;;;;;;5093962;28;20051;-90
2023/05/24 08:20:28;;;;;;;9.45;2.63;;;;;;;;;;5093669;28;20056;-92
2023/05/24 08:22:55;;;;;;;18.58;3.30;;;;;;;;;;5094136;28;20078;-89
2023/05/24 08:25:22;;;;;;;10.13;2.95;;;;;;;;;;5093721;28;20070;-88
2023/05/24 08:27:50;;;;;;;8.15;2.83;;;;;;;;;;5094068;28;20048;-91
2023/05/24 08:30:18;;;;;;;16.55;3.45;;;;;;;;;;5093794;28;20048;-88
2023/05/24 08:32:46;;;;;;;13.15;2.53;;;;;;;;;;5093538;28;20500;-91
2023/05/24 08:35:13;;;;;;;9.55;2.53;;;;;;;;;;5093320;28;20052;-91
2023/05/24 08:37:44;;;;;;;6.10;2.28;;;;;;;;;;5093921;28;20145;-90
2023/05/24 08:40:11;;;;;;;5.82;2.08;;;;;;;;;;5094902;28;20126;-90
2023/05/24 08:42:39;;;;;;;13.85;3.35;;;;;;;;;;5098111;28;20044;-88
2023/05/24 08:45:08;;;;;;;6.60;2.10;;;;;;;;;;5102002;28;20107;-90
2023/05/24 08:47:36;;;;;;;13.32;3.08;;;;;;;;;;5095721;28;20048;-94
2023/05/24 08:50:04;;;;;;;11.85;3.20;;;;;;;;;;5094104;28;20075;-89
2023/05/24 08:52:31;;;;;;;11.38;2.58;;;;;;;;;;5093603;28;20044;-88
2023/05/24 08:54:59;;;;;;;5.65;2.28;;;;;;;;;;5093425;28;20106;-87
2023/05/24 08:57:27;;;;;;;11.93;2.72;;;;;;;;;;5093515;28;20068;-88
2023/05/24 08:59:54;;;;;;;8.48;1.95;;;;;;;;;;5093211;28;20048;-90
2023/05/24 09:02:22;;;;;;;9.48;2.42;;;;;;;;;;5093247;28;20052;-90
2023/05/24 09:04:51;;;;;;;10.23;2.60;;;;;;;;;;5094025;28;20044;-89
2023/05/24 09:07:22;;;;;;;8.35;2.45;;;;;;;;;;5093451;28;20123;-90
2023/05/24 09:09:52;;;;;;;9.82;2.35;;;;;;;;;;5093695;28;20412;-92
2023/05/24 09:12:20;;;;;;;9.85;2.67;;;;;;;;;;5093536;28;20066;-90
2023/05/24 09:15:04;;;;;;;8.75;2.83;;;;;;;;;;5094604;28;20052;-89
2023/05/24 09:17:32;;;;;;;6.60;2.50;;;;;;;;;;5093382;28;20051;-90
2023/05/24 09:20:00;;;;;;;8.55;2.22;;;;;;;;;;5092995;28;20059;-90
2023/05/24 09:22:29;;;;;;;11.23;2.65;;;;;;;;;;5093388;28;20488;-88
2023/05/24 09:24:58;;;;;;;7.68;2.33;;;;;;;;;;5092457;28;20139;-88
2023/05/24 09:27:26;;;;;;;10.70;2.92;;;;;;;;;;5093030;28;20055;-93
2023/05/24 09:29:53;;;;;;;13.25;3.10;;;;;;;;;;5092956;28;20052;-93
2023/05/24 09:32:23;;;;;;;8.38;2.67;;;;;;;;;;5092848;28;20110;-90
2023/05/24 09:34:52;;;;;;;6.35;2.40;;;;;;;;;;5092686;28;20107;-87
2023/05/24 09:37:21;;;;;;;7.60;2.63;;;;;;;;;;5092728;28;20048;-87
2023/05/24 09:39:56;;;;;;;8.48;2.60;;;;;;;;;;5095158;28;20090;-91
2023/05/24 09:42:26;;;;;;;11.27;2.67;;;;;;;;;;5093795;28;20124;-87
2023/05/24 09:45:08;;;;;;;9.75;2.50;;;;;;;;;;5092588;28;20051;-90
2023/05/24 09:47:36;;;;;;;11.70;2.88;;;;;;;;;;5092613;28;20052;-88
2023/05/24 09:50:05;;;;;;;11.15;2.40;;;;;;;;;;5092530;28;20558;-88
2023/05/24 09:52:36;;;;;;;7.80;2.60;;;;;;;;;;5092743;28;20452;-89
2023/05/24 09:55:14;;;;;;;10.13;3.47;;;;;;;;;;5096721;28;20055;-90
2023/05/24 09:57:43;;;;;;;8.63;2.92;;;;;;;;;;5097211;28;20067;-93
2023/05/24 10:00:15;;;;;;;11.07;3.13;;;;;;;;;;5098902;28;20109;-87
2023/05/24 10:02:43;;;;;;;9.90;2.30;;;;;;;;;;5098272;28;20552;-91
2023/05/24 10:05:20;;;;;;;10.35;2.70;;;;;;;;;;5096535;28;20044;-88
2023/05/24 10:07:47;;;;;;;7.78;2.80;;;;;;;;;;5096497;28;20105;-90
2023/05/24 10:10:14;;;;;;;12.07;2.90;;;;;;;;;;5098085;28;20044;-89
2023/05/24 10:12:45;;;;;;;9.55;2.65;;;;;;;;;;5096310;28;20048;-88
2023/05/24 10:15:13;;;;;;;9.82;2.80;;;;;;;;;;5096086;28;20051;-88
2023/05/24 10:17:40;;;;;;;17.98;3.03;;;;;;;;;;5097195;28;20048;-87
2023/05/24 10:20:10;;;;;;;11.10;3.03;;;;;;;;;;5096308;28;20056;-89
2023/05/24 10:22:40;;;;;;;10.27;2.70;;;;;;;;;;5096773;28;20052;-91
2023/05/24 10:25:11;;;;;;;11.52;2.95;;;;;;;;;;5096009;28;20059;-89
2023/05/24 10:27:40;;;;;;;8.07;2.60;;;;;;;;;;5096040;28;20051;-92
2023/05/24 10:30:26;;;;;;;9.88;2.42;;;;;;;;;;5095878;28;20395;-86
2023/05/24 10:32:55;;;;;;;8.68;2.95;;;;;;;;;;5096799;28;20051;-86
2023/05/24 10:35:24;;;;;;;7.65;2.33;;;;;;;;;;5095834;28;20488;-89
2023/05/24 10:37:53;;;;;;;8.98;2.30;;;;;;;;;;5095684;28;20055;-90
2023/05/24 10:40:24;;;;;;;8.48;2.22;;;;;;;;;;5096052;28;20529;-91
2023/05/24 10:42:53;;;;;;;10.25;2.80;;;;;;;;;;5096206;28;20047;-91
2023/05/24 10:45:34;;;;;;;5.90;2.22;;;;;;;;;;5096249;28;20052;-86
2023/05/24 10:48:22;;;;;;;6.65;2.20;;;;;;;;;;5095883;28;20135;-93
2023/05/24 10:50:50;;;;;;;5.90;2.08;;;;;;;;;;5079051;28;20051;-89
2023/05/24 10:53:22;;;;;;;7.65;2.20;;;;;;;;;;5095595;28;20403;-87
2023/05/24 10:55:59;;;;;;;13.48;2.90;;;;;;;;;;5095295;28;20052;-89
2023/05/24 10:58:29;;;;;;;5.15;2.17;;;;;;;;;;5095740;28;20044;-89
2023/05/24 11:00:56;;;;;;;10.40;2.58;;;;;;;;;;5095467;28;20052;-91
2023/05/24 11:03:24;;;;;;;17.73;2.92;;;;;;;;;;5095595;28;20048;-93
2023/05/24 11:05:53;;;;;;;6.55;2.40;;;;;;;;;;5094718;28;20060;-88
2023/05/24 11:08:24;;;;;;;5.57;2.15;;;;;;;;;;5095835;28;20052;-90
2023/05/24 11:11:03;;;;;;;6.22;1.80;;;;;;;;;;5095365;28;20051;-91
2023/05/24 11:13:49;;;;;;;7.30;2.22;;;;;;;;;;5104562;28;20044;-88
2023/05/24 11:16:34;;;;;;;16.77;2.67;;;;;;;;;;5104571;28;20102;-88
2023/05/24 11:19:12;;;;;;;8.32;2.35;;;;;;;;;;5095019;28;20143;-86
2023/05/24 11:21:40;;;;;;;8.07;2.33;;;;;;;;;;5094737;28;20048;-90
2023/05/24 11:24:08;;;;;;;8.00;2.30;;;;;;;;;;5093231;28;20284;-90
2023/05/24 11:26:35;;;;;;;11.77;2.50;;;;;;;;;;5095216;28;20139;-92
2023/05/24 11:29:05;;;;;;;11.73;2.22;;;;;;;;;;5095123;28;20048;-92
2023/05/24 11:31:32;;;;;;;7.22;1.60;;;;;;;;;;5095032;28;20545;-90
2023/05/24 11:34:00;;;;;;;8.30;2.38;;;;;;;;;;5094470;28;20051;-89
2023/05/24 11:36:27;;;;;;;8.40;2.85;;;;;;;;;;5094633;28;20666;-87
2023/05/24 11:38:55;;;;;;;13.73;7.88;;;;;;;;;;5095703;28;20044;-87
2023/05/24 11:41:22;;;;;;;6.22;1.95;;;;;;;;;;5094888;28;20550;-89
2023/05/24 11:43:49;;;;;;;7.03;2.10;;;;;;;;;;5094579;28;20048;-90
2023/05/24 11:46:19;;;;;;;15.88;8.05;;;;;;;;;;5094733;28;20078;-88
2023/05/24 11:48:59;;;;;;;10.52;3.38;;;;;;;;;;5094800;28;20044;-91
2023/05/24 11:51:27;;;;;;;7.55;2.20;;;;;;;;;;5100069;28;20048;-92
2023/05/24 11:53:55;;;;;;;8.05;2.28;;;;;;;;;;5096991;28;20056;-90
2023/05/24 11:56:25;;;;;;;18.27;3.22;;;;;;;;;;5094425;28;20141;-90
2023/05/24 11:58:55;;;;;;;11.23;2.65;;;;;;;;;;5094477;28;20067;-89
2023/05/24 12:01:26;;;;;;;12.88;2.65;;;;;;;;;;5094335;28;20553;-89
2023/05/24 12:03:53;;;;;;;7.90;2.30;;;;;;;;;;5094456;28;20066;-89
2023/05/24 12:06:21;;;;;;;8.38;2.30;;;;;;;;;;5094114;28;20056;-89
2023/05/24 12:08:49;;;;;;;8.75;2.72;;;;;;;;;;5094233;28;20503;-91
2023/05/24 12:11:16;;;;;;;8.25;2.80;;;;;;;;;;5094595;28;20056;-94
2023/05/24 12:13:43;;;;;;;8.07;2.47;;;;;;;;;;5094521;28;20056;-92
2023/05/24 12:16:13;;;;;;;12.45;2.47;;;;;;;;;;5094501;28;20113;-91
2023/05/24 12:18:40;;;;;;;10.65;2.50;;;;;;;;;;5094240;28;20411;-88
2023/05/24 12:21:19;;;;;;;5.55;1.92;;;;;;;;;;5094468;28;20052;-90
2023/05/24 12:23:47;;;;;;;9.57;2.20;;;;;;;;;;5094293;28;20492;-94
2023/05/24 12:26:19;;;;;;;11.75;2.30;;;;;;;;;;5093667;28;20051;-88
2023/05/24 12:28:47;;;;;;;13.25;2.70;;;;;;;;;;5103394;28;20040;-88
2023/05/24 12:31:15;;;;;;;9.02;2.35;;;;;;;;;;5107264;28;20048;-90
2023/05/24 12:33:42;;;;;;;15.13;2.70;;;;;;;;;;5095321;28;20067;-91
2023/05/24 12:36:10;;;;;;;10.77;2.25;;;;;;;;;;5093986;28;20147;-93
2023/05/24 12:38:37;;;;;;;11.45;2.83;;;;;;;;;;5093866;28;20097;-88
2023/05/24 12:41:06;;;;;;;12.48;3.28;;;;;;;;;;5093906;28;20504;-88
2023/05/24 12:43:43;;;;;;;6.10;2.67;;;;;;;;;;5093891;28;20071;-93
2023/05/24 12:46:11;;;;;;;10.88;2.75;;;;;;;;;;5093620;28;20051;-85
2023/05/24 12:48:39;;;;;;;13.20;2.95;;;;;;;;;;5093416;28;20063;-88
2023/05/24 12:51:07;;;;;;;12.70;3.08;;;;;;;;;;5093018;28;20101;-87
2023/05/24 12:53:35;;;;;;;12.35;3.03;;;;;;;;;;5093351;28;20067;-89
2023/05/24 12:56:02;;;;;;;13.85;2.70;;;;;;;;;;5093706;28;20043;-88
2023/05/24 12:58:29;;;;;;;11.95;2.58;;;;;;;;;;5093326;28;20176;-90
2023/05/24 13:00:57;;;;;;;14.95;2.90;;;;;;;;;;5093841;28;20051;-90
2023/05/24 13:03:24;;;;;;;11.30;3.13;;;;;;;;;;5093279;28;20044;-89
2023/05/24 13:05:51;;;;;;;10.40;2.47;;;;;;;;;;5092881;28;20123;-92
2023/05/24 13:08:19;;;;;;;11.05;2.63;;;;;;;;;;5093351;28;20488;-89
2023/05/24 13:10:48;;;;;;;20.48;3.60;;;;;;;;;;5092784;28;20047;-91
2023/05/24 13:13:15;;;;;;;13.57;3.13;;;;;;;;;;5093380;28;20090;-90
2023/05/24 13:15:43;;;;;;;11.25;3.50;;;;;;;;;;5092959;28;20056;-92
2023/05/24 13:18:10;;;;;;;6.93;2.28;;;;;;;;;;5093190;28;20063;-90
2023/05/24 13:20:38;;;;;;;11.57;3.08;;;;;;;;;;5092648;28;20397;-86
2023/05/24 13:23:06;;;;;;;12.32;2.80;;;;;;;;;;5093482;28;20116;-93
2023/05/24 13:25:33;;;;;;;17.35;2.75;;;;;;;;;;5093582;28;20075;-88
2023/05/24 13:28:00;;;;;;;12.07;3.03;;;;;;;;;;5092642;28;20078;-89
2023/05/24 13:30:28;;;;;;;14.30;3.10;;;;;;;;;;5093744;28;20052;-92
2023/05/24 13:32:55;;;;;;;8.65;2.75;;;;;;;;;;5092642;28;20390;-92
2023/05/24 13:35:23;;;;;;;8.18;2.58;;;;;;;;;;5093226;28;20466;-93
2023/05/24 13:37:52;;;;;;;12.32;3.10;;;;;;;;;;5092972;28;20140;-88
2023/05/24 13:40:19;;;;;;;12.27;2.40;;;;;;;;;;5093025;28;20044;-90
2023/05/24 13:42:47;;;;;;;10.38;2.38;;;;;;;;;;5093565;28;20485;-90
2023/05/24 13:45:14;;;;;;;9.52;2.47;;;;;;;;;;5106715;28;20465;-93
2023/05/24 13:47:41;;;;;;;9.13;2.38;;;;;;;;;;5095631;28;20507;-92
2023/05/24 13:50:09;;;;;;;9.48;2.47;;;;;;;;;;5093047;28;20473;-92
2023/05/24 13:52:37;;;;;;;13.40;2.85;;;;;;;;;;5092585;28;20063;-93
2023/05/24 13:55:04;;;;;;;8.48;2.60;;;;;;;;;;5092907;28;20044;-91
2023/05/24 13:57:32;;;;;;;8.95;2.15;;;;;;;;;;5092976;28;20105;-90
2023/05/24 14:00:17;;;;;;;11.00;2.75;;;;;;;;;;5094754;28;20056;-90
2023/05/24 14:02:44;;;;;;;14.15;3.20;;;;;;;;;;5095613;28;20120;-90
2023/05/24 14:05:12;;;;;;;10.50;2.95;;;;;;;;;;5092488;28;20051;-89
2023/05/24 14:07:53;;;;;;;12.25;3.35;;;;;;;;;;5092439;28;20448;-90
2023/05/24 14:10:21;;;;;;;10.32;2.78;;;;;;;;;;5092615;28;20407;-91
2023/05/24 14:12:49;;;;;;;10.43;2.55;;;;;;;;;;5092459;28;20048;-89
2023/05/24 14:15:36;;;;;;;8.52;2.80;;;;;;;;;;5092570;28;20043;-89
2023/05/24 14:18:06;;;;;;;9.55;2.67;;;;;;;;;;5092322;28;20056;-88
2023/05/24 14:20:39;;;;;;;11.88;3.08;;;;;;;;;;5092340;28;20067;-95
2023/05/24 14:23:07;;;;;;;14.65;3.13;;;;;;;;;;5092517;28;20056;-91
2023/05/24 14:25:34;;;;;;;8.40;2.90;;;;;;;;;;5093841;28;20040;-94
2023/05/24 14:28:07;;;;;;;10.32;3.08;;;;;;;;;;5092247;28;20541;-91
2023/05/24 14:30:36;;;;;;;13.13;2.65;;;;;;;;;;5092244;28;20127;-90
2023/05/24 14:33:05;;;;;;;10.48;2.75;;;;;;;;;;5092851;28;20071;-91
2023/05/24 14:35:38;;;;;;;12.35;2.33;;;;;;;;;;5092037;28;20048;-94
2023/05/24 14:38:06;;;;;;;8.30;2.95;;;;;;;;;;5092152;28;20396;-92
2023/05/24 14:40:35;;;;;;;8.40;2.53;;;;;;;;;;5093497;28;20075;-90